createdAt,value
2024-02-13T00:02:22.374Z,65.80
2024-02-13T00:04:48.877Z,65.80
2024-02-13T00:07:15.408Z,65.80
2024-02-13T00:09:41.935Z,65.70
2024-02-13T00:12:08.486Z,65.90
2024-02-13T00:14:35.027Z,65.80
2024-02-13T00:17:01.578Z,65.60
2024-02-13T00:19:28.122Z,65.80
2024-02-13T00:21:54.684Z,65.80
2024-02-13T00:24:21.180Z,65.80
2024-02-13T00:26:47.851Z,65.70
2024-02-13T00:29:14.554Z,65.60
2024-02-13T00:31:41.514Z,65.60
2024-02-13T00:34:08.072Z,65.60
2024-02-13T00:36:34.629Z,65.60
2024-02-13T00:39:01.167Z,65.40
2024-02-13T00:41:27.804Z,65.50
2024-02-13T00:43:54.364Z,65.40
2024-02-13T00:46:20.889Z,65.50
2024-02-13T00:48:47.502Z,65.50
2024-02-13T00:51:14.045Z,65.40
2024-02-13T00:53:40.612Z,65.50
2024-02-13T00:56:07.176Z,65.40
2024-02-13T00:58:33.731Z,65.40
2024-02-13T01:01:00.273Z,65.40
2024-02-13T01:03:26.807Z,65.30
2024-02-13T01:05:53.352Z,65.20
2024-02-13T01:08:19.946Z,65.30
2024-02-13T01:10:46.469Z,65.40
2024-02-13T01:13:12.990Z,65.30
2024-02-13T01:15:39.499Z,65.40
2024-02-13T01:18:06.145Z,65.30
2024-02-13T01:20:32.817Z,65.30
2024-02-13T01:22:59.340Z,65.30
2024-02-13T01:25:25.854Z,65.20
2024-02-13T01:27:52.352Z,65.20
2024-02-13T01:30:18.885Z,65.30
2024-02-13T01:32:45.568Z,65.20
2024-02-13T01:35:12.185Z,65.10
2024-02-13T01:37:38.783Z,65.20
2024-02-13T01:40:05.313Z,65.10
2024-02-13T01:42:31.828Z,65.10
2024-02-13T01:44:58.384Z,65.10
2024-02-13T01:47:25.025Z,65.10
2024-02-13T01:49:51.612Z,65.20
2024-02-13T01:52:18.119Z,65.10
2024-02-13T01:54:44.642Z,65.00
2024-02-13T01:57:11.158Z,65.00
2024-02-13T01:59:37.696Z,65.00
2024-02-13T02:02:04.243Z,64.90
2024-02-13T02:04:30.806Z,64.80
2024-02-13T02:06:57.378Z,64.80
2024-02-13T02:09:23.959Z,64.60
2024-02-13T02:11:50.491Z,64.70
2024-02-13T02:14:17.077Z,64.50
2024-02-13T02:16:43.574Z,64.70
2024-02-13T02:19:10.158Z,64.50
2024-02-13T02:21:36.684Z,64.50
2024-02-13T02:24:03.277Z,64.40
2024-02-13T02:26:29.842Z,64.60
2024-02-13T02:28:56.358Z,64.50
2024-02-13T02:31:22.887Z,64.40
2024-02-13T02:33:49.489Z,64.50
2024-02-13T02:36:16.083Z,64.50
2024-02-13T02:38:42.639Z,64.40
2024-02-13T02:41:09.213Z,64.30
2024-02-13T02:43:35.815Z,64.20
2024-02-13T02:46:02.386Z,64.10
2024-02-13T02:48:28.948Z,63.90
2024-02-13T02:50:55.636Z,63.90
2024-02-13T02:53:22.252Z,64.10
2024-02-13T02:55:48.879Z,64.20
2024-02-13T02:58:15.404Z,63.90
2024-02-13T03:00:41.927Z,63.90
2024-02-13T03:03:08.510Z,63.80
2024-02-13T03:05:35.258Z,63.80
2024-02-13T03:08:01.844Z,63.80
2024-02-13T03:10:28.398Z,64.00
2024-02-13T03:12:54.914Z,63.70
2024-02-13T03:15:21.457Z,63.60
2024-02-13T03:17:48.052Z,63.50
2024-02-13T03:20:14.680Z,63.70
2024-02-13T03:22:41.222Z,63.50
2024-02-13T03:27:34.222Z,63.40
2024-02-13T03:30:00.791Z,63.40
2024-02-13T03:32:27.607Z,63.40
2024-02-13T03:34:54.323Z,63.30
2024-02-13T03:37:20.836Z,63.10
2024-02-13T03:39:47.346Z,63.20
2024-02-13T03:42:13.862Z,63.30
2024-02-13T03:44:40.374Z,63.30
2024-02-13T03:47:06.874Z,63.10
2024-02-13T03:49:33.440Z,63.10
2024-02-13T03:52:00.032Z,63.30
2024-02-13T03:54:26.556Z,63.10
2024-02-13T03:56:53.104Z,63.10
2024-02-13T03:59:19.677Z,63.40
2024-02-13T04:01:46.394Z,63.30
2024-02-13T04:04:12.963Z,63.40
2024-02-13T04:06:39.525Z,63.50
2024-02-13T04:09:06.035Z,63.30
2024-02-13T04:11:32.609Z,63.40
2024-02-13T04:13:59.178Z,63.40
2024-02-13T04:16:25.701Z,63.40
2024-02-13T04:18:52.296Z,63.20
2024-02-13T04:21:18.970Z,63.10
2024-02-13T04:23:45.647Z,63.10
2024-02-13T04:26:21.731Z,63.00
2024-02-13T04:28:57.035Z,62.90
2024-02-13T04:31:23.553Z,62.80
2024-02-13T04:33:50.110Z,63.00
2024-02-13T04:36:16.716Z,62.40
2024-02-13T04:38:43.280Z,63.00
2024-02-13T04:41:09.835Z,63.00
2024-02-13T04:43:36.367Z,62.90
2024-02-13T04:46:02.888Z,62.90
2024-02-13T04:48:29.507Z,62.90
2024-02-13T04:50:56.194Z,62.90
2024-02-13T04:53:22.790Z,62.70
2024-02-13T04:55:49.345Z,62.30
2024-02-13T04:58:15.848Z,62.30
2024-02-13T05:00:42.389Z,62.60
2024-02-13T05:03:08.952Z,62.00
2024-02-13T05:05:35.600Z,61.70
2024-02-13T05:08:02.297Z,60.70
2024-02-13T05:10:28.847Z,61.80
2024-02-13T05:12:55.389Z,61.40
2024-02-13T05:15:21.902Z,61.50
2024-02-13T05:17:48.606Z,61.30
2024-02-13T05:20:15.383Z,61.30
2024-02-13T05:22:42.026Z,59.80
2024-02-13T05:25:08.571Z,60.80
2024-02-13T05:27:35.117Z,61.60
2024-02-13T05:30:01.613Z,60.80
2024-02-13T05:32:28.233Z,61.40
2024-02-13T05:34:54.823Z,60.50
2024-02-13T05:37:21.349Z,60.40
2024-02-13T05:39:47.847Z,61.40
2024-02-13T05:42:14.354Z,61.30
2024-02-13T05:44:40.872Z,60.60
2024-02-13T05:47:07.390Z,61.70
2024-02-13T05:49:34.296Z,61.60
2024-02-13T05:52:00.963Z,61.60
2024-02-13T05:54:27.645Z,61.60
2024-02-13T05:56:54.249Z,62.00
2024-02-13T05:59:20.793Z,61.70
2024-02-13T06:01:47.412Z,61.60
2024-02-13T06:04:14.002Z,61.60
2024-02-13T06:06:40.570Z,61.10
2024-02-13T06:09:07.193Z,61.60
2024-02-13T06:11:33.817Z,61.70
2024-02-13T06:14:00.368Z,61.70
2024-02-13T06:16:26.888Z,61.80
2024-02-13T06:18:53.505Z,61.60
2024-02-13T06:21:23.347Z,61.80
2024-02-13T06:23:52.029Z,61.40
2024-02-13T06:26:18.697Z,61.70
2024-02-13T06:28:45.276Z,61.90
2024-02-13T06:31:11.801Z,61.10
2024-02-13T06:33:38.487Z,60.50
2024-02-13T06:36:05.099Z,61.60
2024-02-13T06:38:31.748Z,60.90
2024-02-13T06:40:58.281Z,61.10
2024-02-13T06:43:24.793Z,60.80
2024-02-13T06:45:51.309Z,61.20
2024-02-13T06:48:17.886Z,61.60
2024-02-13T06:50:44.588Z,61.50
2024-02-13T06:53:11.145Z,61.80
2024-02-13T06:55:37.660Z,61.50
2024-02-13T06:58:04.170Z,61.30
2024-02-13T07:00:30.709Z,61.30
2024-02-13T07:02:57.340Z,61.50
2024-02-13T07:05:23.948Z,61.30
2024-02-13T07:07:50.675Z,61.30
2024-02-13T07:10:18.062Z,61.40
2024-02-13T07:12:45.359Z,60.20
2024-02-13T07:15:12.349Z,60.50
2024-02-13T07:17:48.939Z,61.00
2024-02-13T07:20:23.106Z,61.30
2024-02-13T07:22:49.713Z,61.00
2024-02-13T07:25:16.486Z,61.20
2024-02-13T07:27:43.205Z,61.30
2024-02-13T07:30:09.844Z,61.60
2024-02-13T07:32:41.625Z,61.00
2024-02-13T07:35:08.459Z,61.50
2024-02-13T07:37:34.969Z,61.50
2024-02-13T07:40:01.472Z,61.20
2024-02-13T07:42:27.978Z,61.00
2024-02-13T07:44:54.511Z,61.10
2024-02-13T07:47:21.055Z,60.50
2024-02-13T07:49:47.619Z,59.70
2024-02-13T07:52:14.163Z,61.00
2024-02-13T07:54:40.669Z,61.30
2024-02-13T07:57:07.197Z,60.10
2024-02-13T07:59:33.736Z,60.60
2024-02-13T08:02:00.293Z,60.80
2024-02-13T08:04:26.847Z,60.90
2024-02-13T08:06:53.425Z,61.10
2024-02-13T08:09:19.934Z,61.10
2024-02-13T08:11:46.528Z,61.00
2024-02-13T08:14:13.106Z,61.30
2024-02-13T08:16:39.638Z,61.20
2024-02-13T08:19:06.163Z,61.00
2024-02-13T08:21:32.672Z,61.40
2024-02-13T08:23:59.276Z,61.30
2024-02-13T08:26:25.880Z,60.70
2024-02-13T08:28:52.402Z,60.80
2024-02-13T08:31:18.935Z,60.20
2024-02-13T08:33:45.915Z,60.10
2024-02-13T08:36:12.681Z,60.40
2024-02-13T08:38:39.256Z,60.60
2024-02-13T08:41:05.777Z,61.10
2024-02-13T08:43:32.272Z,59.10
2024-02-13T08:45:58.767Z,60.40
2024-02-13T08:48:25.586Z,60.80
2024-02-13T08:50:52.378Z,60.30
2024-02-13T08:53:19.020Z,61.20
2024-02-13T08:55:45.578Z,60.10
2024-02-13T08:58:12.138Z,60.50
2024-02-13T09:00:38.695Z,60.70
2024-02-13T09:03:05.291Z,60.20
2024-02-13T09:05:31.897Z,61.20
2024-02-13T09:07:58.459Z,60.50
2024-02-13T09:10:24.957Z,61.30
2024-02-13T09:12:53.259Z,61.20
2024-02-13T09:15:19.901Z,61.20
2024-02-13T09:17:46.724Z,59.70
2024-02-13T09:20:13.381Z,60.40
2024-02-13T09:22:39.917Z,60.80
2024-02-13T09:25:06.418Z,61.10
2024-02-13T09:27:33.014Z,60.60
2024-02-13T09:29:59.645Z,60.30
2024-02-13T09:32:26.301Z,60.80
2024-02-13T09:34:52.984Z,60.90
2024-02-13T09:37:19.539Z,59.90
2024-02-13T09:39:46.128Z,60.80
2024-02-13T09:42:12.627Z,60.80
2024-02-13T09:44:39.200Z,60.70
2024-02-13T09:47:05.770Z,61.10
2024-02-13T09:49:32.421Z,61.00
2024-02-13T09:51:58.993Z,60.80
2024-02-13T09:54:25.516Z,60.60
2024-02-13T09:56:52.156Z,59.70
2024-02-13T09:59:18.749Z,60.80
2024-02-13T10:01:45.271Z,60.60
2024-02-13T10:04:11.844Z,60.70
2024-02-13T10:06:38.438Z,60.90
2024-02-13T10:09:05.080Z,59.80
2024-02-13T10:11:31.683Z,60.70
2024-02-13T10:13:58.253Z,60.50
2024-02-13T10:16:24.924Z,60.50
2024-02-13T10:18:51.825Z,60.20
2024-02-13T10:21:18.385Z,60.70
2024-02-13T10:23:45.064Z,60.30
2024-02-13T10:26:11.645Z,60.90
2024-02-13T10:28:38.161Z,60.60
2024-02-13T10:31:04.656Z,60.30
2024-02-13T10:33:31.187Z,60.40
2024-02-13T10:35:57.850Z,60.80
2024-02-13T10:38:24.547Z,60.70
2024-02-13T10:40:51.093Z,61.00
2024-02-13T10:43:17.634Z,60.50
2024-02-13T10:45:44.145Z,60.90
2024-02-13T10:48:10.793Z,59.50
2024-02-13T10:50:37.373Z,60.40
2024-02-13T10:53:03.932Z,60.60
2024-02-13T10:55:30.436Z,61.10
2024-02-13T10:57:56.958Z,60.90
2024-02-13T11:00:23.520Z,61.10
2024-02-13T11:02:50.130Z,61.40
2024-02-13T11:05:16.794Z,61.50
2024-02-13T11:07:44.050Z,61.10
2024-02-13T11:10:10.659Z,61.40
2024-02-13T11:12:37.163Z,61.20
2024-02-13T11:15:03.746Z,60.60
2024-02-13T11:17:30.780Z,61.00
2024-02-13T11:19:57.626Z,60.70
2024-02-13T11:22:24.316Z,61.00
2024-02-13T11:24:51.130Z,60.80
2024-02-13T11:27:24.544Z,60.90
2024-02-13T11:29:55.506Z,61.30
2024-02-13T11:32:22.132Z,61.20
2024-02-13T11:34:48.775Z,61.10
2024-02-13T11:37:15.374Z,60.90
2024-02-13T11:39:41.882Z,60.80
2024-02-13T11:42:08.400Z,61.00
2024-02-13T11:44:34.935Z,61.30
2024-02-13T11:47:01.540Z,60.70
2024-02-13T11:49:28.299Z,61.10
2024-02-13T11:51:55.018Z,60.70
2024-02-13T11:54:21.534Z,61.00
2024-02-13T11:56:48.125Z,61.10
2024-02-13T11:59:14.715Z,61.20
2024-02-13T12:01:41.268Z,61.30
2024-02-13T12:04:07.834Z,61.30
2024-02-13T12:06:34.452Z,61.40
2024-02-13T12:09:01.048Z,61.50
2024-02-13T12:11:27.620Z,61.50
2024-02-13T12:13:54.190Z,61.60
2024-02-13T12:16:20.757Z,61.20
2024-02-13T12:18:47.472Z,61.20
2024-02-13T12:21:14.121Z,60.90
2024-02-13T12:23:40.654Z,60.80
2024-02-13T12:26:07.257Z,61.10
2024-02-13T12:28:33.996Z,61.10
2024-02-13T12:31:00.673Z,61.30
2024-02-13T12:33:27.469Z,61.50
2024-02-13T12:35:54.210Z,61.50
2024-02-13T12:38:20.914Z,61.60
2024-02-13T12:40:47.485Z,61.60
2024-02-13T12:43:13.996Z,61.50
2024-02-13T12:45:40.512Z,61.50
2024-02-13T12:48:07.112Z,61.50
2024-02-13T12:50:33.893Z,61.50
2024-02-13T12:53:00.498Z,61.50
2024-02-13T12:55:27.008Z,61.60
2024-02-13T12:57:53.506Z,61.50
2024-02-13T13:00:20.040Z,61.50
2024-02-13T13:02:46.599Z,61.50
2024-02-13T13:05:13.132Z,61.40
2024-02-13T13:07:39.655Z,61.50
2024-02-13T13:10:06.173Z,61.50
2024-02-13T13:12:32.693Z,61.40
2024-02-13T13:15:03.742Z,61.50
2024-02-13T13:17:36.050Z,61.40
2024-02-13T13:20:02.892Z,61.20
2024-02-13T13:22:29.551Z,61.40
2024-02-13T13:24:56.087Z,61.50
2024-02-13T13:27:22.671Z,61.30
2024-02-13T13:29:49.215Z,61.40
2024-02-13T13:32:15.788Z,61.40
2024-02-13T13:34:42.360Z,61.40
2024-02-13T13:37:08.924Z,61.50
2024-02-13T13:39:35.462Z,61.50
2024-02-13T13:42:02.153Z,61.40
2024-02-13T13:44:28.763Z,61.50
2024-02-13T13:46:55.337Z,61.40
2024-02-13T13:49:21.891Z,61.40
2024-02-13T13:51:48.575Z,61.30
2024-02-13T13:54:15.136Z,61.40
2024-02-13T13:56:41.701Z,61.50
2024-02-13T13:59:08.289Z,61.50
2024-02-13T14:01:34.801Z,61.50
2024-02-13T14:04:01.400Z,61.50
2024-02-13T14:06:28.061Z,61.60
2024-02-13T14:08:54.721Z,61.50
2024-02-13T14:11:21.283Z,61.50
2024-02-13T14:13:47.815Z,61.40
2024-02-13T14:16:14.914Z,61.40
2024-02-13T14:18:41.808Z,61.30
2024-02-13T14:21:08.684Z,61.40
2024-02-13T14:23:35.250Z,61.40
2024-02-13T14:26:01.784Z,61.40
2024-02-13T14:28:28.306Z,61.10
2024-02-13T14:30:54.823Z,61.10
2024-02-13T14:33:21.441Z,61.20
2024-02-13T14:35:48.097Z,61.20
2024-02-13T14:38:14.690Z,61.30
2024-02-13T14:40:41.306Z,61.30
2024-02-13T14:43:07.901Z,61.40
2024-02-13T14:45:34.532Z,61.30
2024-02-13T14:48:01.086Z,61.30
2024-02-13T14:50:27.848Z,61.20
2024-02-13T14:52:54.516Z,61.10
2024-02-13T14:55:21.026Z,61.20
2024-02-13T14:57:56.388Z,61.30
2024-02-13T15:00:33.166Z,61.20
2024-02-13T15:02:59.835Z,61.30
2024-02-13T15:05:26.413Z,61.30
2024-02-13T15:07:52.951Z,61.40
2024-02-13T15:10:19.477Z,61.40
2024-02-13T15:12:46.011Z,61.40
2024-02-13T15:15:12.532Z,61.40
2024-02-13T15:17:39.138Z,61.40
2024-02-13T15:20:05.703Z,61.40
2024-02-13T15:22:32.339Z,61.30
2024-02-13T15:25:02.114Z,61.30
2024-02-13T15:27:29.190Z,61.30
2024-02-13T15:29:55.756Z,61.30
2024-02-13T15:32:22.401Z,61.30
2024-02-13T15:34:49.079Z,61.40
2024-02-13T15:37:15.631Z,61.30
2024-02-13T15:39:42.137Z,61.30
2024-02-13T15:42:08.691Z,61.30
2024-02-13T15:44:35.222Z,61.30
2024-02-13T15:47:01.731Z,61.10
2024-02-13T15:49:28.383Z,61.20
2024-02-13T15:51:54.984Z,61.20
2024-02-13T15:54:21.473Z,61.20
2024-02-13T15:56:48.074Z,61.20
2024-02-13T15:59:14.621Z,61.20
2024-02-13T16:01:41.129Z,61.20
2024-02-13T16:04:07.639Z,61.20
2024-02-13T16:06:34.158Z,61.10
2024-02-13T16:09:00.851Z,61.10
2024-02-13T16:11:27.585Z,61.10
2024-02-13T16:13:54.136Z,61.00
2024-02-13T16:16:20.646Z,61.00
2024-02-13T16:18:47.326Z,61.00
2024-02-13T16:21:13.887Z,61.00
2024-02-13T16:23:40.445Z,61.00
2024-02-13T16:26:06.978Z,61.00
2024-02-13T16:28:33.555Z,60.90
2024-02-13T16:31:00.130Z,61.00
2024-02-13T16:33:26.720Z,61.00
2024-02-13T16:35:56.406Z,61.00
2024-02-13T16:38:22.991Z,60.90
2024-02-13T16:40:49.517Z,61.00
2024-02-13T16:43:16.059Z,61.00
2024-02-13T16:45:42.567Z,61.00
2024-02-13T16:48:09.178Z,61.10
2024-02-13T16:50:35.805Z,61.00
2024-02-13T16:53:02.329Z,61.00
2024-02-13T16:55:28.904Z,61.00
2024-02-13T16:57:55.430Z,61.00
2024-02-13T17:00:21.925Z,61.00
2024-02-13T17:02:48.628Z,61.00
2024-02-13T17:05:15.184Z,61.00
2024-02-13T17:07:41.822Z,61.00
2024-02-13T17:10:08.403Z,61.00
2024-02-13T17:12:34.909Z,61.00
2024-02-13T17:15:01.610Z,60.80
2024-02-13T17:17:28.341Z,60.90
2024-02-13T17:19:54.968Z,60.90
2024-02-13T17:22:21.549Z,60.70
2024-02-13T17:24:48.060Z,60.70
2024-02-13T17:27:14.638Z,60.80
2024-02-13T17:29:41.228Z,60.80
2024-02-13T17:32:07.759Z,60.70
2024-02-13T17:34:34.384Z,60.70
2024-02-13T17:37:00.955Z,60.70
2024-02-13T17:39:27.484Z,60.70
2024-02-13T17:41:54.064Z,60.70
2024-02-13T17:44:20.614Z,60.60
2024-02-13T17:46:47.149Z,60.70
2024-02-13T17:49:13.840Z,60.60
2024-02-13T17:51:40.396Z,60.50
2024-02-13T17:54:06.961Z,60.50
2024-02-13T17:56:33.554Z,60.50
2024-02-13T17:59:00.088Z,60.50
2024-02-13T18:01:26.606Z,60.40
2024-02-13T18:03:53.364Z,60.30
2024-02-13T18:06:20.014Z,60.30
2024-02-13T18:08:46.629Z,60.20
2024-02-13T18:11:13.138Z,60.20
2024-02-13T18:13:39.635Z,60.10
2024-02-13T18:16:06.133Z,60.00
2024-02-13T18:18:32.824Z,60.10
2024-02-13T18:20:59.715Z,60.00
2024-02-13T18:23:26.342Z,60.10
2024-02-13T18:25:52.909Z,60.10
2024-02-13T18:28:19.422Z,60.10
2024-02-13T18:30:45.934Z,60.10
2024-02-13T18:33:12.589Z,60.10
2024-02-13T18:35:39.196Z,60.10
2024-02-13T18:38:05.732Z,60.10
2024-02-13T18:40:32.240Z,60.10
2024-02-13T18:42:58.753Z,60.10
2024-02-13T18:45:25.259Z,60.20
2024-02-13T18:47:51.834Z,60.10
2024-02-13T18:50:18.390Z,60.10
2024-02-13T18:52:44.905Z,60.20
2024-02-13T18:55:11.417Z,60.10
2024-02-13T18:57:37.941Z,60.10
2024-02-13T19:00:04.521Z,60.20
2024-02-13T19:02:31.093Z,60.20
2024-02-13T19:04:57.713Z,60.30
2024-02-13T19:07:24.280Z,60.30
2024-02-13T19:09:50.807Z,60.30
2024-02-13T19:12:17.319Z,60.30
2024-02-13T19:14:43.879Z,60.30
2024-02-13T19:17:10.410Z,60.30
2024-02-13T19:19:37.006Z,60.30
2024-02-13T19:22:03.546Z,60.30
2024-02-13T19:24:30.072Z,60.40
2024-02-13T19:26:56.702Z,60.40
2024-02-13T19:29:23.258Z,60.30
2024-02-13T19:31:49.775Z,60.40
2024-02-13T19:34:16.396Z,60.40
2024-02-13T19:36:42.963Z,60.30
2024-02-13T19:39:09.552Z,60.40
2024-02-13T19:41:36.088Z,60.40
2024-02-13T19:44:02.616Z,60.30
2024-02-13T19:46:29.245Z,60.40
2024-02-13T19:48:55.904Z,60.40
2024-02-13T19:51:22.462Z,60.30
2024-02-13T19:53:49.215Z,60.30
2024-02-13T19:56:16.096Z,60.40
2024-02-13T19:58:42.697Z,60.30
2024-02-13T20:01:09.264Z,60.30
2024-02-13T20:03:35.881Z,60.30
2024-02-13T20:06:02.523Z,60.30
2024-02-13T20:08:29.154Z,60.40
2024-02-13T20:10:55.748Z,60.40
2024-02-13T20:13:22.280Z,60.50
2024-02-13T20:15:48.784Z,60.40
2024-02-13T20:18:15.484Z,60.30
2024-02-13T20:20:42.125Z,60.30
2024-02-13T20:23:08.669Z,60.30
2024-02-13T20:25:35.203Z,60.40
2024-02-13T20:28:01.723Z,60.40
2024-02-13T20:30:28.255Z,60.50
2024-02-13T20:32:54.911Z,60.40
2024-02-13T20:35:21.541Z,60.40
2024-02-13T20:37:48.062Z,60.40
2024-02-13T20:40:14.648Z,60.50
2024-02-13T20:42:41.174Z,60.40
2024-02-13T20:45:15.020Z,60.40
2024-02-13T20:47:47.947Z,60.50
2024-02-13T20:50:14.561Z,60.40
2024-02-13T20:52:41.116Z,60.40
2024-02-13T20:55:07.610Z,60.40
2024-02-13T20:57:34.120Z,60.40
2024-02-13T21:00:00.667Z,60.40
2024-02-13T21:02:27.249Z,60.40
2024-02-13T21:04:53.814Z,60.40
2024-02-13T21:07:20.360Z,60.30
2024-02-13T21:09:46.926Z,60.30
2024-02-13T21:12:13.497Z,60.40
2024-02-13T21:14:40.119Z,60.40
2024-02-13T21:17:06.644Z,60.40
2024-02-13T21:19:33.238Z,60.40
2024-02-13T21:21:59.753Z,60.40
2024-02-13T21:24:26.256Z,60.40
2024-02-13T21:26:52.827Z,60.30
2024-02-13T21:29:19.414Z,60.20
2024-02-13T21:31:45.920Z,60.30
2024-02-13T21:34:12.581Z,60.30
2024-02-13T21:36:39.149Z,60.40
2024-02-13T21:39:05.768Z,60.30
2024-02-13T21:41:32.355Z,60.10
2024-02-13T21:43:58.862Z,60.20
2024-02-13T21:46:25.389Z,60.10
2024-02-13T21:48:52.039Z,60.10
2024-02-13T21:51:18.640Z,60.10
2024-02-13T21:53:45.159Z,60.20
2024-02-13T21:56:11.729Z,60.20
2024-02-13T21:58:38.239Z,60.20
2024-02-13T22:01:04.769Z,60.20
2024-02-13T22:03:31.301Z,60.30
2024-02-13T22:05:57.952Z,60.10
2024-02-13T22:08:24.597Z,60.20
2024-02-13T22:10:51.114Z,60.30
2024-02-13T22:13:17.621Z,60.20
2024-02-13T22:15:44.122Z,60.20
2024-02-13T22:18:10.669Z,60.20
2024-02-13T22:20:37.245Z,60.10
2024-02-13T22:23:03.785Z,60.20
2024-02-13T22:25:30.289Z,60.40
2024-02-13T22:27:56.785Z,60.20
2024-02-13T22:30:23.319Z,60.30
2024-02-13T22:32:49.864Z,60.30
2024-02-13T22:35:16.399Z,60.30
2024-02-13T22:37:42.923Z,60.30
2024-02-13T22:40:09.422Z,60.30
2024-02-13T22:42:35.938Z,60.30
2024-02-13T22:45:02.489Z,60.30
2024-02-13T22:47:29.233Z,60.30
2024-02-13T22:49:55.864Z,60.30
2024-02-13T22:52:22.393Z,60.30
2024-02-13T22:54:48.891Z,60.30
2024-02-13T22:57:15.408Z,60.20
2024-02-13T22:59:41.954Z,60.20
2024-02-13T23:02:08.511Z,60.20
2024-02-13T23:04:35.021Z,60.20
2024-02-13T23:07:01.554Z,60.30
2024-02-13T23:09:28.063Z,60.20
2024-02-13T23:11:54.884Z,60.10
2024-02-13T23:14:21.528Z,60.20
2024-02-13T23:16:48.101Z,60.10
2024-02-13T23:19:14.755Z,60.30
2024-02-13T23:21:41.407Z,60.30
2024-02-13T23:24:08.044Z,60.30
2024-02-13T23:26:34.652Z,60.30
2024-02-13T23:29:01.169Z,60.40
2024-02-13T23:31:27.684Z,60.40
2024-02-13T23:33:54.648Z,60.30
2024-02-13T23:36:21.472Z,60.40
2024-02-13T23:38:48.161Z,60.40
2024-02-13T23:41:14.797Z,60.50
2024-02-13T23:43:42.697Z,60.70
2024-02-13T23:46:09.198Z,60.50
2024-02-13T23:48:35.837Z,60.40
2024-02-13T23:51:02.451Z,60.50
2024-02-13T23:53:28.993Z,60.60
2024-02-13T23:55:55.489Z,60.60
2024-02-13T23:58:22.022Z,60.70
